Time;durP1;ratioP1;P1;durP2;ratioP2;P2;SDS_P1;SDS_P2;PMS_P1;PMS_P2;Temp;Humidity;BMP_temperature;BMP_pressure;BME280_temperature;BME280_humidity;BME280_pressure;Samples;Min_cycle;Max_cycle;Signal;HPM_P1;HPM_P2
2023/10/17 00:00:38;;;;;;;;;;;;;;;6.06;100.00;102068.25;5047523;28;20686;-73
2023/10/17 00:03:04;;;;;;;;;;;;;;;6.07;100.00;102064.63;5048397;28;20442;-73
2023/10/17 00:05:29;;;;;;;;;;;;;;;6.05;100.00;102070.06;5049681;28;19927;-73
2023/10/17 00:07:58;;;;;;;;;;;;;;;6.03;100.00;102071.03;5048218;28;20315;-73
2023/10/17 00:10:23;;;;;;;;;;;;;;;6.02;100.00;102067.50;5031803;28;20779;-73
2023/10/17 00:12:52;;;;;;;;;;;;;;;6.00;100.00;102064.03;5046930;28;20063;-73
2023/10/17 00:15:27;;;;;;;;;;;;;;;5.99;100.00;102056.91;5032192;28;20324;-74
2023/10/17 00:17:54;;;;;;;;;;;;;;;5.97;100.00;102058.78;5034441;28;19974;-73
2023/10/17 00:20:24;;;;;;;;;;;;;;;6.02;100.00;102050.63;5032203;28;19928;-74
2023/10/17 00:22:51;;;;;;;;;;;;;;;6.06;100.00;102058.47;5045638;28;19994;-73
2023/10/17 00:25:17;;;;;;;;;;;;;;;6.11;100.00;102048.44;5051192;28;20737;-73
2023/10/17 00:27:43;;;;;;;;;;;;;;;6.14;100.00;102052.81;5048103;28;20286;-73
2023/10/17 00:30:16;;;;;;;;;;;;;;;6.13;100.00;102053.75;5047408;28;20363;-73
2023/10/17 00:32:42;;;;;;;;;;;;;;;6.14;100.00;102052.81;5052654;28;19973;-73
2023/10/17 00:35:19;;;;;;;;;;;;;;;6.15;100.00;102052.75;5058151;28;19920;-73
2023/10/17 00:37:53;;;;;;;;;;;;;;;6.08;100.00;102045.94;5057921;28;19943;-73
2023/10/17 00:43:05;;;;;;;;;;;;;;;6.11;100.00;102044.94;5058195;28;20002;-73
2023/10/17 00:45:32;;;;;;;;;;;;;;;6.11;100.00;102055.59;5038043;28;20310;-73
2023/10/17 00:47:58;;;;;;;;;;;;;;;6.10;100.00;102053.88;5054440;28;20390;-73
2023/10/17 00:50:23;;;;;;;;;;;;;;;6.14;100.00;102052.81;5048748;28;19920;-73
2023/10/17 00:52:49;;;;;;;;;;;;;;;6.06;100.00;102026.47;5030495;28;19962;-73
2023/10/17 00:55:15;;;;;;;;;;;;;;;6.21;100.00;102040.09;5039385;28;19920;-73
2023/10/17 00:57:40;;;;;;;;;;;;;;;6.27;100.00;102031.84;5042809;28;19964;-74
2023/10/17 01:00:41;;;;;;;;;;;;;;;6.32;100.00;102031.66;5035537;28;19924;-74
2023/10/17 01:03:01;;;;;;;;;;;;;;;6.18;100.00;102008.22;5052397;28;20311;-73
2023/10/17 01:05:26;;;;;;;;;;;;;;;6.29;100.00;102022.00;5035262;28;19927;-74
2023/10/17 01:07:51;;;;;;;;;;;;;;;6.31;100.00;102028.13;5054972;28;20286;-74
2023/10/17 01:10:16;;;;;;;;;;;;;;;6.32;100.00;102026.31;5054775;28;19951;-74
2023/10/17 01:13:00;;;;;;;;;;;;;;;6.31;100.00;102028.13;5052485;28;19924;-73
2023/10/17 01:15:28;;;;;;;;;;;;;;;6.27;100.00;102030.03;5040706;28;19963;-73
2023/10/17 01:18:06;;;;;;;;;;;;;;;6.27;100.00;102026.53;5050623;28;19927;-73
2023/10/17 01:20:31;;;;;;;;;;;;;;;6.27;100.00;102024.72;5036590;28;19925;-73
2023/10/17 01:23:00;;;;;;;;;;;;;;;6.29;100.00;102030.84;5054333;28;19921;-73
2023/10/17 01:25:26;;;;;;;;;;;;;;;6.29;100.00;102030.00;5050016;28;19920;-73
2023/10/17 01:27:55;;;;;;;;;;;;;;;6.25;100.00;102029.22;5040106;28;19932;-73
2023/10/17 01:30:20;;;;;;;;;;;;;;;6.25;100.00;102036.38;5051744;28;20026;-73
2023/10/17 01:32:47;;;;;;;;;;;;;;;6.29;100.00;102040.66;5038388;28;20015;-73
2023/10/17 01:35:13;;;;;;;;;;;;;;;6.29;100.00;102038.00;5052296;28;19920;-73
2023/10/17 01:37:40;;;;;;;;;;;;;;;6.27;100.00;102043.38;5055038;28;19931;-73
2023/10/17 01:40:09;;;;;;;;;;;;;;;6.29;100.00;102038.84;5038578;28;19970;-73
2023/10/17 01:42:34;;;;;;;;;;;;;;;6.32;100.00;102035.22;5037008;28;19925;-73
2023/10/17 01:45:00;;;;;;;;;;;;;;;6.32;100.00;102035.22;5051527;28;19956;-73
2023/10/17 01:47:26;;;;;;;;;;;;;;;6.27;100.00;102032.72;5039532;28;19916;-74
2023/10/17 01:49:51;;;;;;;;;;;;;;;6.28;100.00;102031.78;5052688;28;19924;-74
2023/10/17 01:52:16;;;;;;;;;;;;;;;6.30;100.00;102021.91;5054473;28;19957;-74
2023/10/17 01:54:47;;;;;;;;;;;;;;;6.33;100.00;102012.94;5057131;28;19925;-73
2023/10/17 01:57:12;;;;;;;;;;;;;;;6.37;100.00;102011.00;5052915;28;20014;-74
2023/10/17 01:59:38;;;;;;;;;;;;;;;6.39;100.00;101998.47;5052124;28;19926;-73
2023/10/17 02:02:03;;;;;;;;;;;;;;;6.35;100.00;101994.19;5035528;28;20015;-74
2023/10/17 02:04:30;;;;;;;;;;;;;;;6.34;100.00;101995.13;5053204;28;20504;-73
2023/10/17 02:06:55;;;;;;;;;;;;;;;6.37;100.00;102000.34;5053037;28;19917;-73
2023/10/17 02:11:54;;;;;;;;;;;;;;;6.45;100.00;101999.06;5052006;28;20015;-73
2023/10/17 02:14:20;;;;;;;;;;;;;;;6.51;100.00;101997.09;5054032;28;19920;-73
2023/10/17 02:16:45;;;;;;;;;;;;;;;6.51;100.00;101989.94;5035501;28;19962;-73
2023/10/17 02:19:10;;;;;;;;;;;;;;;6.55;100.00;101990.69;5035680;28;19939;-73
2023/10/17 02:21:39;;;;;;;;;;;;;;;6.52;100.00;101982.81;5051439;28;19967;-74
2023/10/17 02:24:07;;;;;;;;;;;;;;;6.46;100.00;101978.63;5051047;28;20034;-74
2023/10/17 02:26:42;;;;;;;;;;;;;;;6.47;100.00;101975.00;5054127;28;19920;-73
2023/10/17 02:29:11;;;;;;;;;;;;;;;6.55;100.00;101972.00;5051586;28;20018;-73
2023/10/17 02:31:36;;;;;;;;;;;;;;;6.57;100.00;101978.16;5050907;28;19955;-73
2023/10/17 02:34:02;;;;;;;;;;;;;;;6.56;100.00;101971.94;5053618;28;19960;-74
2023/10/17 02:36:27;;;;;;;;;;;;;;;6.57;100.00;101971.00;5048296;28;19921;-74
2023/10/17 02:38:52;;;;;;;;;;;;;;;6.57;100.00;101976.34;5053891;28;19920;-73
2023/10/17 02:41:28;;;;;;;;;;;;;;;6.63;100.00;101983.22;5046694;28;19962;-74
2023/10/17 02:43:54;;;;;;;;;;;;;;;6.61;100.00;101979.75;5050637;28;19960;-73
2023/10/17 02:46:19;;;;;;;;;;;;;;;6.58;100.00;101980.75;5035881;28;20043;-73
2023/10/17 02:48:48;;;;;;;;;;;;;;;6.55;100.00;101978.19;5052448;28;19927;-74
2023/10/17 02:51:31;;;;;;;;;;;;;;;6.58;100.00;101983.41;5049047;28;19954;-74
2023/10/17 02:53:57;;;;;;;;;;;;;;;6.60;100.00;101978.03;5054506;28;19916;-73
2023/10/17 02:56:22;;;;;;;;;;;;;;;6.60;100.00;101976.22;5045264;28;19927;-74
2023/10/17 02:59:06;;;;;;;;;;;;;;;6.62;100.00;101981.50;5055056;28;19955;-73
2023/10/17 03:01:32;;;;;;;;;;;;;;;6.62;100.00;101975.28;5048433;28;19924;-74
2023/10/17 03:04:09;;;;;;;;;;;;;;;6.65;100.00;101980.50;5055784;28;19948;-73
2023/10/17 03:06:38;;;;;;;;;;;;;;;6.66;100.00;101991.09;5051654;28;20371;-73
2023/10/17 03:09:16;;;;;;;;;;;;;;;6.68;100.00;101997.22;5053181;28;19946;-73
2023/10/17 03:11:50;;;;;;;;;;;;;;;6.67;100.00;101986.63;5045968;28;20405;-73
2023/10/17 03:14:22;;;;;;;;;;;;;;;6.67;100.00;101990.16;5040921;28;19955;-73
2023/10/17 03:16:52;;;;;;;;;;;;;;;6.67;100.00;101992.81;5036144;28;19967;-73
2023/10/17 03:19:25;;;;;;;;;;;;;;;6.64;100.00;101982.28;5054019;28;19920;-73
2023/10/17 03:21:52;;;;;;;;;;;;;;;6.61;100.00;101979.75;5051721;28;19974;-73
2023/10/17 03:24:19;;;;;;;;;;;;;;;6.64;100.00;101984.09;5048485;28;19920;-73
2023/10/17 03:26:54;;;;;;;;;;;;;;;6.66;100.00;101971.56;5034161;28;19942;-73
2023/10/17 03:29:19;;;;;;;;;;;;;;;6.64;100.00;101974.28;5066357;28;19963;-73
2023/10/17 03:31:48;;;;;;;;;;;;;;;6.60;100.00;101968.19;5050037;28;20434;-74
2023/10/17 03:34:14;;;;;;;;;;;;;;;6.64;100.00;101968.94;5037346;28;19936;-74
2023/10/17 03:42:05;;;;;;;;;;;;;;;6.67;100.00;101971.47;5062621;28;20124;-73
2023/10/17 03:44:30;;;;;;;;;;;;;;;6.63;100.00;101974.34;5034927;28;20395;-73
2023/10/17 03:46:59;;;;;;;;;;;;;;;6.53;100.00;101977.41;5036406;28;20671;-74
2023/10/17 03:49:24;;;;;;;;;;;;;;;6.60;100.00;101981.53;5044218;28;20034;-73
2023/10/17 03:51:54;;;;;;;;;;;;;;;6.64;100.00;101981.41;5029670;28;19920;-73
2023/10/17 03:54:22;;;;;;;;;;;;;;;6.65;100.00;101992.00;5045419;28;20102;-73
2023/10/17 03:56:49;;;;;;;;;;;;;;;6.70;100.00;101990.03;5042063;28;19927;-74
2023/10/17 03:59:33;;;;;;;;;;;;;;;6.59;100.00;101966.47;5045044;28;19920;-74
2023/10/17 04:01:58;;;;;;;;;;;;;;;6.76;100.00;101991.56;5043916;28;20478;-74
2023/10/17 04:04:36;;;;;;;;;;;;;;;6.78;100.00;101996.84;5044781;28;19940;-73
2023/10/17 04:07:06;;;;;;;;;;;;;;;6.78;100.00;101991.50;5045457;28;19932;-73
2023/10/17 04:09:37;;;;;;;;;;;;;;;6.78;100.00;102000.38;5035242;28;19927;-73
2023/10/17 04:12:07;;;;;;;;;;;;;;;6.78;100.00;101980.81;5053740;28;19965;-73
2023/10/17 04:14:33;;;;;;;;;;;;;;;6.75;100.00;101984.50;5046312;28;19932;-73
2023/10/17 04:16:59;;;;;;;;;;;;;;;6.73;100.00;101983.72;5042768;28;19920;-73
2023/10/17 04:19:24;;;;;;;;;;;;;;;6.70;100.00;101986.50;5022439;28;20402;-73
2023/10/17 04:22:14;;;;;;;;;;;;;;;6.72;100.00;101985.50;5028523;28;19932;-73
2023/10/17 04:24:39;;;;;;;;;;;;;;;6.73;100.00;101986.38;5044103;28;20016;-73
2023/10/17 04:27:18;;;;;;;;;;;;;;;6.75;100.00;101992.50;5043169;28;20394;-73
2023/10/17 04:29:50;;;;;;;;;;;;;;;6.72;100.00;102001.50;5045436;28;19924;-74
2023/10/17 04:32:15;;;;;;;;;;;;;;;6.75;100.00;101997.84;5051811;28;19955;-73
2023/10/17 04:34:46;;;;;;;;;;;;;;;6.79;100.00;101990.56;5052211;28;20050;-73
2023/10/17 04:37:37;;;;;;;;;;;;;;;6.81;100.00;101991.38;5067851;28;19942;-73
2023/10/17 04:40:27;;;;;;;;;;;;;;;6.81;100.00;101989.56;5048957;28;19925;-73
2023/10/17 04:45:23;;;;;;;;;;;;;;;6.77;100.00;101995.09;5053871;28;20003;-74
2023/10/17 04:48:03;;;;;;;;;;;;;;;6.80;100.00;102001.16;5035707;28;20054;-74
2023/10/17 04:50:40;;;;;;;;;;;;;;;6.82;100.00;101999.31;5056476;28;19924;-75
2023/10/17 04:53:05;;;;;;;;;;;;;;;6.81;100.00;101997.56;5053101;28;19943;-73
2023/10/17 04:55:58;;;;;;;;;;;;;;;6.80;100.00;101994.97;5055072;28;20369;-73
2023/10/17 04:58:40;;;;;;;;;;;;;;;6.82;100.00;101990.44;5050799;28;20283;-73
2023/10/17 05:03:45;;;;;;;;;;;;;;;6.79;100.00;101995.91;5049151;28;19924;-73
2023/10/17 06:17:27;;;;;;;;;;;;;;;6.58;100.00;101982.56;5048158;28;19926;-74
2023/10/17 06:19:53;;;;;;;;;;;;;;;6.50;100.00;101974.84;5039934;28;19931;-73
2023/10/17 06:30:34;;;;;;;;;;;;;;;6.49;100.00;101986.47;5050261;28;20028;-73
2023/10/17 06:33:17;;;;;;;;;;;;;;;6.45;100.00;101992.88;5051188;28;20285;-73
2023/10/17 06:35:46;;;;;;;;;;;;;;;6.49;100.00;101989.13;5039890;28;19924;-73
2023/10/17 06:38:15;;;;;;;;;;;;;;;6.44;100.00;101986.66;5051550;28;19924;-74
2023/10/17 06:40:45;;;;;;;;;;;;;;;6.50;100.00;101992.69;5047482;28;19924;-74
2023/10/17 06:43:17;;;;;;;;;;;;;;;6.56;100.00;101989.75;5050218;28;19930;-72
2023/10/17 06:45:54;;;;;;;;;;;;;;;6.60;100.00;102002.91;5047573;28;19924;-72
2023/10/17 06:48:19;;;;;;;;;;;;;;;6.62;100.00;102004.63;5042092;28;19959;-74
2023/10/17 06:53:28;;;;;;;;;;;;;;;6.68;100.00;101991.88;5049108;28;19971;-75
2023/10/17 06:55:59;;;;;;;;;;;;;;;6.37;100.00;101958.50;5046656;28;19999;-75
2023/10/17 06:58:27;;;;;;;;;;;;;;;6.59;100.00;101989.63;5052964;28;20492;-74
2023/10/17 07:00:53;;;;;;;;;;;;;;;6.59;100.00;101986.97;5048985;28;20015;-74
2023/10/17 07:03:34;;;;;;;;;;;;;;;6.59;100.00;101997.63;5045606;28;20538;-74
2023/10/17 07:06:12;;;;;;;;;;;;;;;6.65;100.00;102000.03;5047602;28;19928;-73
2023/10/17 07:08:38;;;;;;;;;;;;;;;6.70;100.00;101992.69;5034791;28;19921;-74
2023/10/17 07:11:05;;;;;;;;;;;;;;;6.71;100.00;101993.56;5046663;28;20336;-75
2023/10/17 07:13:49;;;;;;;;;;;;;;;6.78;100.00;102000.38;5036691;28;19927;-75
2023/10/17 07:16:25;;;;;;;;;;;;;;;6.78;100.00;101991.50;5049603;28;19921;-75
2023/10/17 07:18:51;;;;;;;;;;;;;;;6.79;100.00;101988.75;5045470;28;19921;-74
2023/10/17 07:21:17;;;;;;;;;;;;;;;6.81;100.00;101999.38;5034840;28;20005;-74
2023/10/17 07:23:45;;;;;;;;;;;;;;;6.82;100.00;101993.97;5048453;28;21491;-75
2023/10/17 07:28:54;;;;;;;;;;;;;;;6.82;100.00;102009.13;5051032;28;19924;-75
2023/10/17 07:31:20;;;;;;;;;;;;;;;6.79;100.00;101995.91;5046740;28;19924;-75
2023/10/17 07:33:46;;;;;;;;;;;;;;;6.80;100.00;101994.97;5049473;28;20027;-75
2023/10/17 07:36:18;;;;;;;;;;;;;;;6.79;100.00;101991.41;5045656;28;19924;-75
2023/10/17 07:38:43;;;;;;;;;;;;;;;6.81;100.00;101994.91;5049226;28;20146;-75
2023/10/17 07:41:15;;;;;;;;;;;;;;;6.83;100.00;101995.69;5047365;28;20076;-76
2023/10/17 07:43:44;;;;;;;;;;;;;;;6.87;100.00;101996.44;5049008;28;19963;-76
2023/10/17 07:46:15;;;;;;;;;;;;;;;6.87;100.00;101997.31;5032193;28;19955;-75
2023/10/17 07:48:44;;;;;;;;;;;;;;;6.94;100.00;101997.03;5046949;28;19924;-76
2023/10/17 07:51:14;;;;;;;;;;;;;;;7.02;100.00;101993.09;5048298;28;19920;-75
2023/10/17 07:53:45;;;;;;;;;;;;;;;7.08;100.00;101981.25;5044570;28;19924;-78
2023/10/17 07:56:13;;;;;;;;;;;;;;;7.18;100.00;101976.38;5046521;28;20358;-75
2023/10/17 07:58:45;;;;;;;;;;;;;;;7.23;100.00;101985.03;5046208;28;20018;-74
2023/10/17 08:01:17;;;;;;;;;;;;;;;7.31;100.00;101974.88;5036015;28;19934;-75
2023/10/17 08:03:54;;;;;;;;;;;;;;;7.43;100.00;101981.47;5050689;28;19924;-76
2023/10/17 08:06:22;;;;;;;;;;;;;;;7.53;100.00;101978.38;5050307;28;19963;-76
2023/10/17 08:08:49;;;;;;;;;;;;;;;7.63;100.00;101979.66;5033662;28;19924;-76
2023/10/17 08:11:27;;;;;;;;;;;;;;;7.78;100.00;101973.59;5049401;28;19974;-78
2023/10/17 08:13:56;;;;;;;;;;;;;;;7.95;100.00;101977.25;5053065;28;20411;-75
2023/10/17 08:16:32;;;;;;;;;;;;;;;8.09;100.00;101973.91;5052962;28;20648;-75
2023/10/17 08:19:13;;;;;;;;;;;;;;;8.25;100.00;101976.69;5053056;28;19925;-74
2023/10/17 08:22:10;;;;;;;;;;;;;;;8.41;100.00;101977.66;5054320;28;20526;-75
2023/10/17 08:29:49;;;;;;;;;;;;;;;8.75;100.00;101963.50;5051837;28;19982;-74
2023/10/17 08:35:07;;;;;;;;;;;;;;;8.96;100.00;101954.34;5051038;28;20504;-76
2023/10/17 08:37:43;;;;;;;;;;;;;;;9.21;100.00;101957.53;5053627;28;19966;-75
2023/10/17 08:40:29;;;;;;;;;;;;;;;9.35;100.00;101951.41;5050952;28;19923;-74
2023/10/17 08:42:56;;;;;;;;;;;;;;;9.49;100.00;101962.22;5052808;28;20548;-74
2023/10/17 08:45:24;;;;;;;;;;;;;;;9.67;100.00;101954.09;5051870;28;20349;-76
2023/10/17 08:47:50;;;;;;;;;;;;;;;9.59;100.00;101958.09;5050886;28;19928;-75
2023/10/17 08:50:15;;;;;;;;;;;;;;;9.79;100.00;101955.25;5053107;28;20325;-76
2023/10/17 08:52:41;;;;;;;;;;;;;;;9.81;100.00;101953.31;5053164;28;19921;-73
2023/10/17 08:55:06;;;;;;;;;;;;;;;10.07;100.00;101943.78;5049549;28;19950;-75
2023/10/17 08:57:31;;;;;;;;;;;;;;;10.25;100.00;101940.97;5048267;28;19920;-75
2023/10/17 09:02:35;;;;;;;;;;;;;;;10.63;100.00;101940.53;5050571;28;19940;-74
2023/10/17 09:05:25;;;;;;;;;;;;;;;10.76;100.00;101937.97;5031734;28;19931;-74
2023/10/17 09:07:55;;;;;;;;;;;;;;;10.98;100.00;101936.66;5050848;28;20408;-73
2023/10/17 09:15:48;;;;;;;;;;;;;;;11.05;100.00;101952.28;5046737;28;20164;-74
2023/10/17 09:18:13;;;;;;;;;;;;;;;10.94;100.00;101957.47;5051174;28;19928;-76
2023/10/17 09:20:41;;;;;;;;;;;;;;;11.08;100.00;101964.69;5032805;28;19963;-73
2023/10/17 09:23:23;;;;;;;;;;;;;;;11.22;100.00;101953.09;5050131;28;20231;-73
2023/10/17 09:25:52;;;;;;;;;;;;;;;11.30;100.00;101953.44;5045708;28;19917;-73
2023/10/17 09:28:19;;;;;;;;;;;;;;;11.50;100.00;101957.56;5032938;28;20406;-73
2023/10/17 09:30:55;;;;;;;;;;;;;;;11.69;100.00;101953.66;5052052;28;19924;-74
2023/10/17 09:33:27;;;;;;;;;;;;;;;11.80;100.00;101953.84;5045818;28;19932;-74
2023/10/17 09:35:54;;;;;;;;;;;;;;;11.63;100.00;101962.16;5055247;28;19920;-73
2023/10/17 09:38:19;;;;;;;;;;;;;;;11.88;100.00;101960.56;5037058;28;19920;-75
2023/10/17 09:40:45;;;;;;;;;;;;;;;12.10;100.00;101970.78;5049955;28;19927;-72
2023/10/17 09:43:11;;;;;;;;;;;;;;;12.22;100.00;101966.41;5047496;28;19924;-72
2023/10/17 09:45:39;;;;;;;;;;;;;;;12.26;100.00;101971.50;5049412;28;19920;-72
2023/10/17 09:48:05;;;;;;;;;;;;;;;12.34;100.00;101973.69;5034945;28;19970;-73
2023/10/17 09:50:32;;;;;;;;;;;;;;;12.33;100.00;101974.66;5051891;28;19932;-74
2023/10/17 09:52:57;;;;;;;;;;;;;;;12.35;100.00;101980.81;5049773;28;20402;-72
2023/10/17 09:55:23;;;;;;;;;;;;;;;12.58;100.00;101970.28;5033384;28;19959;-74
2023/10/17 09:57:54;;;;;;;;;;;;;;;12.71;100.00;101970.31;5049910;28;21877;-70
2023/10/17 10:00:40;;;;;;;;;;;;;;;12.88;100.00;101970.00;5045028;28;20497;-70
2023/10/17 10:03:05;;;;;;;;;;;;;;;13.11;100.00;101959.41;5057122;28;20042;-71
2023/10/17 10:05:30;;;;;;;;;;;;;;;13.21;100.00;101967.75;5051823;28;19920;-71
2023/10/17 10:08:00;;;;;;;;;;;;;;;13.13;100.00;101978.19;5048032;28;20035;-71
2023/10/17 10:10:44;;;;;;;;;;;;;;;13.09;100.00;101974.00;5048244;28;20670;-72
2023/10/17 10:13:13;;;;;;;;;;;;;;;12.96;100.00;101950.59;5063801;28;20035;-72
2023/10/17 10:16:08;;;;;;;;;;;;;;;13.14;100.00;101963.75;5033713;28;20650;-71
2023/10/17 10:18:34;;;;;;;;;;;;;;;13.38;100.00;101954.88;5051454;28;19927;-71
2023/10/17 10:20:59;;;;;;;;;;;;;;;13.59;100.00;101947.94;5051891;28;20517;-71
2023/10/17 10:23:40;;;;;;;;;;;;;;;13.76;100.00;101945.88;5050277;28;20354;-72
2023/10/17 10:26:12;;;;;;;;;;;;;;;13.74;100.00;101945.13;5046748;28;19920;-70
2023/10/17 10:28:40;;;;;;;;;;;;;;;14.21;100.00;101946.09;5052438;28;19921;-71
2023/10/17 10:31:29;;;;;;;;;;;;;;;14.75;100.00;101940.25;5048757;28;20380;-72
2023/10/17 10:33:54;;;;;;;;;;;;;;;14.91;100.00;101939.91;5049253;28;20233;-72
2023/10/17 10:36:20;;;;;;;;;;;;;;;14.88;96.58;101941.00;5048812;28;20304;-72
2023/10/17 10:38:45;;;;;;;;;;;;;;;14.81;98.03;101940.66;5048226;28;19921;-74
2023/10/17 10:41:15;;;;;;;;;;;;;;;14.88;88.95;101937.44;5044892;28;19997;-70
2023/10/17 10:43:40;;;;;;;;;;;;;;;14.98;94.61;101931.16;5044348;28;20291;-71
2023/10/17 10:46:06;;;;;;;;;;;;;;;15.07;93.15;101915.22;5047929;28;19924;-75
2023/10/17 10:48:32;;;;;;;;;;;;;;;15.43;88.52;101916.78;5036227;28;19927;-72
2023/10/17 10:50:59;;;;;;;;;;;;;;;15.96;99.11;101906.22;5049094;28;20386;-72
2023/10/17 10:53:28;;;;;;;;;;;;;;;16.56;82.97;101914.66;5049785;28;19921;-68
2023/10/17 10:55:57;;;;;;;;;;;;;;;16.27;77.81;101912.59;5052172;28;20560;-69
2023/10/17 10:58:26;;;;;;;;;;;;;;;15.93;76.86;101910.03;5047893;28;20003;-75
2023/10/17 11:00:54;;;;;;;;;;;;;;;16.07;68.51;101903.47;5045171;28;19990;-73
2023/10/17 11:03:19;;;;;;;;;;;;;;;16.94;72.54;101894.19;5048271;28;20286;-73
2023/10/17 11:05:54;;;;;;;;;;;;;;;17.11;68.63;101883.72;5048858;28;20346;-73
2023/10/17 11:08:22;;;;;;;;;;;;;;;17.02;67.15;101882.69;5049262;28;19931;-72
2023/10/17 11:10:47;;;;;;;;;;;;;;;17.91;61.53;101874.72;5047204;28;20707;-73
2023/10/17 11:13:13;;;;;;;;;;;;;;;17.85;61.73;101881.59;5042211;28;19928;-72
2023/10/17 11:15:39;;;;;;;;;;;;;;;17.52;61.90;101876.38;5031119;28;19967;-75
2023/10/17 11:18:06;;;;;;;;;;;;;;;17.95;54.60;101887.03;5049346;28;19925;-73
2023/10/17 11:20:32;;;;;;;;;;;;;;;18.17;55.06;101877.75;5039254;28;20364;-72
2023/10/17 11:22:57;;;;;;;;;;;;;;;18.49;52.42;101875.72;5047146;28;19932;-72
2023/10/17 11:25:26;;;;;;;;;;;;;;;18.86;57.32;101873.00;5046718;28;20351;-74
2023/10/17 11:28:07;;;;;;;;;;;;;;;19.68;54.40;101866.84;5046958;28;19967;-74
2023/10/17 11:30:42;;;;;;;;;;;;;;;19.52;55.35;101855.78;5044803;28;19917;-71
2023/10/17 11:33:10;;;;;;;;;;;;;;;19.45;50.68;101850.09;5048515;28;20037;-72
2023/10/17 11:35:37;;;;;;;;;;;;;;;19.48;48.13;101852.50;5049948;28;19985;-72
2023/10/17 11:38:02;;;;;;;;;;;;;;;19.45;51.70;101841.91;5044720;28;19928;-71
2023/10/17 11:40:29;;;;;;;;;;;;;;;19.02;52.74;101831.59;5047645;28;19963;-73
2023/10/17 11:42:54;;;;;;;;;;;;;;;19.89;53.00;101828.41;5045589;28;20023;-74
2023/10/17 11:45:25;;;;;;;;;;;;;;;20.73;51.88;101829.84;5050488;28;20609;-73
2023/10/17 11:47:50;;;;;;;;;;;;;;;21.03;48.53;101830.34;5053912;28;20867;-74
2023/10/17 11:50:30;;;;;;;;;;;;;;;21.17;46.92;101832.44;5049041;28;19920;-73
2023/10/17 11:52:58;;;;;;;;;;;;;;;21.63;44.63;101842.13;5046376;28;19983;-74
2023/10/17 11:55:24;;;;;;;;;;;;;;;21.74;43.66;101841.81;5049124;28;19932;-71
2023/10/17 11:57:49;;;;;;;;;;;;;;;21.82;44.32;101846.41;5050397;28;19925;-72
2023/10/17 12:02:43;;;;;;;;;;;;;;;21.77;43.62;101833.28;5046584;28;19932;-71
2023/10/17 12:05:18;;;;;;;;;;;;;;;21.10;42.17;101825.91;5048758;28;19920;-73
2023/10/17 12:07:49;;;;;;;;;;;;;;;21.39;44.49;101824.63;5051315;28;20374;-72
2023/10/17 12:10:17;;;;;;;;;;;;;;;22.00;44.49;101827.13;5051645;28;20134;-71
2023/10/17 12:12:43;;;;;;;;;;;;;;;20.87;45.04;101821.06;5053320;28;19958;-71
2023/10/17 12:15:13;;;;;;;;;;;;;;;21.10;43.85;101831.38;5051550;28;20388;-70
2023/10/17 12:17:38;;;;;;;;;;;;;;;20.90;44.21;101828.91;5050845;28;19928;-74
2023/10/17 12:20:09;;;;;;;;;;;;;;;20.98;43.11;101831.69;5051151;28;19921;-69
2023/10/17 12:22:35;;;;;;;;;;;;;;;22.41;41.77;101831.69;5053765;28;19938;-72
2023/10/17 12:25:00;;;;;;;;;;;;;;;22.97;42.92;101830.88;5052487;28;20282;-72
2023/10/17 12:27:25;;;;;;;;;;;;;;;24.17;40.44;101825.97;5051202;28;20314;-72
2023/10/17 12:29:50;;;;;;;;;;;;;;;23.31;38.52;101814.09;5053007;28;20429;-73
2023/10/17 12:32:17;;;;;;;;;;;;;;;23.88;37.78;101805.63;5052544;28;19920;-72
2023/10/17 12:34:42;;;;;;;;;;;;;;;23.33;38.40;101786.50;5052884;28;19920;-69
2023/10/17 12:37:11;;;;;;;;;;;;;;;22.81;40.14;101788.81;5049801;28;19959;-70
2023/10/17 12:39:37;;;;;;;;;;;;;;;22.11;41.23;101779.44;5046865;28;19920;-71
2023/10/17 12:42:02;;;;;;;;;;;;;;;23.12;38.45;101771.56;5052611;28;20331;-71
2023/10/17 12:44:28;;;;;;;;;;;;;;;23.93;38.82;101765.66;5051935;28;19943;-72
2023/10/17 12:46:53;;;;;;;;;;;;;;;22.33;40.59;101753.25;5049154;28;20355;-72
2023/10/17 12:49:19;;;;;;;;;;;;;;;22.87;39.11;101743.47;5053711;28;19920;-72
2023/10/17 12:51:47;;;;;;;;;;;;;;;22.49;40.53;101733.22;5048631;28;19928;-69
2023/10/17 12:54:12;;;;;;;;;;;;;;;22.23;39.96;101719.75;5035897;28;20007;-72
2023/10/17 12:56:37;;;;;;;;;;;;;;;22.55;40.77;101726.16;5051767;28;19920;-72
2023/10/17 12:59:03;;;;;;;;;;;;;;;22.29;39.63;101708.94;5050266;28;20243;-70
2023/10/17 13:01:29;;;;;;;;;;;;;;;21.00;42.60;101707.84;5050184;28;20019;-72
2023/10/17 13:03:57;;;;;;;;;;;;;;;20.38;44.64;101707.09;5051950;28;19928;-72
2023/10/17 13:06:24;;;;;;;;;;;;;;;18.94;46.34;101708.13;5036262;28;20109;-72
2023/10/17 13:08:56;;;;;;;;;;;;;;;18.77;46.86;101707.13;5052418;28;20007;-70
2023/10/17 13:11:21;;;;;;;;;;;;;;;19.75;46.69;101711.78;5049669;28;20015;-72
2023/10/17 13:13:47;;;;;;;;;;;;;;;20.29;47.64;101713.53;5052302;28;20275;-71
2023/10/17 13:16:13;;;;;;;;;;;;;;;21.30;44.04;101708.22;5051217;28;20360;-72
2023/10/17 13:18:40;;;;;;;;;;;;;;;21.96;42.42;101695.41;5047995;28;19983;-71
2023/10/17 13:21:15;;;;;;;;;;;;;;;23.75;41.61;101721.25;5047277;28;19932;-72
2023/10/17 13:23:40;;;;;;;;;;;;;;;23.23;39.53;101715.53;5050089;28;19965;-73
2023/10/17 13:26:11;;;;;;;;;;;;;;;22.95;40.48;101707.81;5030368;28;19920;-71
2023/10/17 13:28:36;;;;;;;;;;;;;;;23.75;39.56;101711.16;5036210;28;19916;-72
2023/10/17 13:31:07;;;;;;;;;;;;;;;24.37;39.32;101700.06;5049741;28;19955;-72
2023/10/17 13:33:32;;;;;;;;;;;;;;;24.06;38.70;101704.72;5049574;28;19920;-72
2023/10/17 13:35:58;;;;;;;;;;;;;;;23.97;38.82;101705.78;5032342;28;20409;-72
2023/10/17 13:38:23;;;;;;;;;;;;;;;23.07;39.49;101700.91;5048036;28;20282;-74
2023/10/17 13:40:48;;;;;;;;;;;;;;;22.08;41.45;101708.69;5047626;28;20587;-73
2023/10/17 13:43:13;;;;;;;;;;;;;;;20.43;43.22;101703.88;5051606;28;20393;-73
2023/10/17 13:45:41;;;;;;;;;;;;;;;19.54;46.06;101706.69;5047612;28;20446;-74
2023/10/17 13:48:06;;;;;;;;;;;;;;;18.87;48.21;101710.63;5049535;28;19924;-75
2023/10/17 13:50:31;;;;;;;;;;;;;;;17.76;50.11;101698.59;5050874;28;20401;-72
2023/10/17 13:53:06;;;;;;;;;;;;;;;16.59;56.01;101693.94;5051051;28;20345;-72
2023/10/17 13:55:33;;;;;;;;;;;;;;;15.80;60.34;101688.16;5049610;28;20051;-74
2023/10/17 13:58:02;;;;;;;;;;;;;;;14.95;62.92;101693.50;5051527;28;19920;-70
2023/10/17 14:00:36;;;;;;;;;;;;;;;14.79;68.82;101669.56;5050164;28;19921;-72
2023/10/17 14:03:06;;;;;;;;;;;;;;;14.39;77.43;101689.00;5046182;28;19962;-71
2023/10/17 14:05:31;;;;;;;;;;;;;;;14.30;85.31;101678.94;5035375;28;19924;-73
2023/10/17 14:07:57;;;;;;;;;;;;;;;14.32;82.93;101687.75;5050695;28;20155;-73
2023/10/17 14:10:24;;;;;;;;;;;;;;;14.41;83.35;101684.31;5045430;28;19943;-72
2023/10/17 14:12:50;;;;;;;;;;;;;;;14.43;79.91;101682.38;5046586;28;20207;-71
2023/10/17 14:15:15;;;;;;;;;;;;;;;14.08;82.69;101672.53;5048574;28;20358;-75
2023/10/17 14:17:45;;;;;;;;;;;;;;;13.92;87.71;101687.28;5047204;28;19964;-73
2023/10/17 14:20:38;;;;;;;;;;;;;;;13.75;81.65;101669.69;5042508;28;19920;-72
2023/10/17 14:23:08;;;;;;;;;;;;;;;13.48;85.77;101662.75;5046398;28;19928;-71
2023/10/17 14:28:18;;;;;;;;;;;;;;;13.84;87.83;101654.59;5047502;28;20404;-74
2023/10/17 14:30:43;;;;;;;;;;;;;;;13.75;89.81;101663.44;5046561;28;19928;-74
2023/10/17 14:33:09;;;;;;;;;;;;;;;13.65;89.45;101663.28;5049173;28;19920;-73
2023/10/17 14:35:34;;;;;;;;;;;;;;;13.54;87.20;101663.28;5034200;28;20743;-72
2023/10/17 14:38:00;;;;;;;;;;;;;;;13.58;91.79;101664.75;5048988;28;19991;-71
2023/10/17 14:40:27;;;;;;;;;;;;;;;13.39;89.39;101670.69;5049809;28;19928;-71
2023/10/17 14:42:53;;;;;;;;;;;;;;;13.29;91.53;101667.81;5052255;28;19935;-73
2023/10/17 14:45:18;;;;;;;;;;;;;;;13.21;91.99;101663.03;5045265;28;19920;-74
2023/10/17 14:47:43;;;;;;;;;;;;;;;13.17;87.26;101659.69;5046334;28;19925;-74